< Cyclone 201314 2013 Season Cyclone 201318 >
Cyclone 201317 (Victoria)
General InformationTrack Information on Google MapsDetailed Wind InformationList of All Images || ResourceGoogle EarthGE AnimationAtom FeedGeoJSON
Detalied Best Track (Time Zone = UTC)
Year Month Day Hour Lat. Long. Pressure (hPa) Wind (kt) Class Image Chart
2013 4 6 12 -5.6 99.2 1008 15 2 Image --
2013 4 6 18 -6.0 99.4 1008 15 2 Image --
2013 4 6 23 -6.4 99.5 1008 17.5 0 Image --
2013 4 7 00 -6.7 99.6 1008 20 2 Image --
2013 4 7 06 -7.7 100.0 1006 20 2 Image --
2013 4 7 12 -8.2 100.4 1004 25 2 Image --
2013 4 7 18 -8.6 100.9 1001 30 2 Image --
2013 4 8 00 -9.1 101.3 998 35 3 Image --
2013 4 8 06 -9.3 101.6 997 35 3 Image --
2013 4 8 12 -9.8 102.0 997 35 3 Image --
2013 4 8 18 -10.4 102.3 998 35 3 Image --
2013 4 9 00 -11.3 102.5 996 40 3 Image --
2013 4 9 06 -12.3 102.8 993 45 3 Image --
2013 4 9 11 -13.1 103.0 989 51.6667 0 Image --
2013 4 9 12 -13.3 103.1 987 55 4 Image --
2013 4 9 18 -14.0 103.3 979 65 5 Image --
2013 4 10 00 -14.8 103.5 971 75 5 Image --
2013 4 10 06 -15.3 103.8 971 75 5 Image --
2013 4 10 12 -15.7 104.0 971 75 5 Image --
2013 4 10 18 -16.3 104.2 976 65 5 Image --
2013 4 11 00 -17.3 104.3 987 55 4 Image --
2013 4 11 06 -18.7 104.6 993 45 3 Image --
2013 4 11 12 -20.1 104.9 996 40 3 Image --
2013 4 11 18 -21.7 105.3 999 35 3 Image --
2013 4 12 00 -24.4 105.6 1003 30 2 Image --
< Cyclone 201314 2013 Season Cyclone 201318 >

Help